sensor_id;sensor_type;location;lat;lon;timestamp;temperature;humidity
15983;DHT22;14442;50.196;8.096;2023-04-22T00:00:46;22.40;44.00
15983;DHT22;14442;50.196;8.096;2023-04-22T00:03:13;22.40;43.90
15983;DHT22;14442;50.196;8.096;2023-04-22T00:05:39;22.30;43.80
15983;DHT22;14442;50.196;8.096;2023-04-22T00:08:07;22.30;43.80
15983;DHT22;14442;50.196;8.096;2023-04-22T00:10:35;22.30;43.80
15983;DHT22;14442;50.196;8.096;2023-04-22T00:13:01;22.30;43.70
15983;DHT22;14442;50.196;8.096;2023-04-22T00:15:28;22.30;43.80
15983;DHT22;14442;50.196;8.096;2023-04-22T00:17:56;22.30;43.70
15983;DHT22;14442;50.196;8.096;2023-04-22T00:20:23;22.30;43.70
15983;DHT22;14442;50.196;8.096;2023-04-22T00:22:50;22.20;43.60
15983;DHT22;14442;50.196;8.096;2023-04-22T00:25:16;22.20;43.70
15983;DHT22;14442;50.196;8.096;2023-04-22T00:27:45;22.20;43.70
15983;DHT22;14442;50.196;8.096;2023-04-22T00:30:12;22.20;43.70
15983;DHT22;14442;50.196;8.096;2023-04-22T00:32:39;22.10;43.60
15983;DHT22;14442;50.196;8.096;2023-04-22T00:35:06;22.10;43.60
15983;DHT22;14442;50.196;8.096;2023-04-22T00:37:33;22.20;43.70
15983;DHT22;14442;50.196;8.096;2023-04-22T00:40:00;22.10;43.60
15983;DHT22;14442;50.196;8.096;2023-04-22T00:42:28;22.10;44.20
15983;DHT22;14442;50.196;8.096;2023-04-22T00:44:56;22.10;43.60
15983;DHT22;14442;50.196;8.096;2023-04-22T00:47:24;22.10;43.50
15983;DHT22;14442;50.196;8.096;2023-04-22T00:49:53;22.10;43.50
15983;DHT22;14442;50.196;8.096;2023-04-22T00:52:20;22.10;43.50
15983;DHT22;14442;50.196;8.096;2023-04-22T00:54:47;22.10;43.50
15983;DHT22;14442;50.196;8.096;2023-04-22T00:57:14;22.10;43.50
15983;DHT22;14442;50.196;8.096;2023-04-22T00:59:41;22.00;43.50
15983;DHT22;14442;50.196;8.096;2023-04-22T01:02:09;22.10;43.50
15983;DHT22;14442;50.196;8.096;2023-04-22T01:04:36;22.00;43.50
15983;DHT22;14442;50.196;8.096;2023-04-22T01:07:03;22.00;43.50
15983;DHT22;14442;50.196;8.096;2023-04-22T01:09:30;22.00;43.50
15983;DHT22;14442;50.196;8.096;2023-04-22T01:11:56;22.00;43.50
15983;DHT22;14442;50.196;8.096;2023-04-22T01:14:23;22.00;43.40
15983;DHT22;14442;50.196;8.096;2023-04-22T01:16:51;22.00;43.50
15983;DHT22;14442;50.196;8.096;2023-04-22T01:19:20;22.00;43.50
15983;DHT22;14442;50.196;8.096;2023-04-22T01:21:49;22.00;43.40
15983;DHT22;14442;50.196;8.096;2023-04-22T01:24:18;21.90;43.40
15983;DHT22;14442;50.196;8.096;2023-04-22T01:26:45;21.90;43.40
15983;DHT22;14442;50.196;8.096;2023-04-22T01:29:13;21.90;43.40
15983;DHT22;14442;50.196;8.096;2023-04-22T01:31:40;21.90;43.30
15983;DHT22;14442;50.196;8.096;2023-04-22T01:34:07;21.90;43.40
15983;DHT22;14442;50.196;8.096;2023-04-22T01:36:33;21.90;43.40
15983;DHT22;14442;50.196;8.096;2023-04-22T01:39:00;21.90;43.30
15983;DHT22;14442;50.196;8.096;2023-04-22T01:41:28;21.90;43.40
15983;DHT22;14442;50.196;8.096;2023-04-22T01:43:57;21.90;43.40
15983;DHT22;14442;50.196;8.096;2023-04-22T01:46:23;21.90;43.30
15983;DHT22;14442;50.196;8.096;2023-04-22T01:48:50;21.90;43.40
15983;DHT22;14442;50.196;8.096;2023-04-22T01:51:17;21.90;43.30
15983;DHT22;14442;50.196;8.096;2023-04-22T01:53:45;21.90;43.40
15983;DHT22;14442;50.196;8.096;2023-04-22T01:56:12;21.80;43.20
15983;DHT22;14442;50.196;8.096;2023-04-22T01:58:40;21.90;43.30
15983;DHT22;14442;50.196;8.096;2023-04-22T02:01:08;21.90;43.30
15983;DHT22;14442;50.196;8.096;2023-04-22T02:03:35;21.90;43.40
15983;DHT22;14442;50.196;8.096;2023-04-22T02:06:02;21.90;43.30
15983;DHT22;14442;50.196;8.096;2023-04-22T02:08:29;21.80;43.20
15983;DHT22;14442;50.196;8.096;2023-04-22T02:10:56;21.90;43.40
15983;DHT22;14442;50.196;8.096;2023-04-22T02:13:24;21.90;43.30
15983;DHT22;14442;50.196;8.096;2023-04-22T02:15:52;21.80;43.20
15983;DHT22;14442;50.196;8.096;2023-04-22T02:18:19;21.80;43.20
15983;DHT22;14442;50.196;8.096;2023-04-22T02:20:46;21.80;43.20
15983;DHT22;14442;50.196;8.096;2023-04-22T02:23:13;21.80;43.90
15983;DHT22;14442;50.196;8.096;2023-04-22T02:25:39;21.80;43.30
15983;DHT22;14442;50.196;8.096;2023-04-22T02:28:06;21.80;43.30
15983;DHT22;14442;50.196;8.096;2023-04-22T02:30:33;21.80;43.30
15983;DHT22;14442;50.196;8.096;2023-04-22T02:33:01;21.80;43.30
15983;DHT22;14442;50.196;8.096;2023-04-22T02:35:28;21.80;43.30
15983;DHT22;14442;50.196;8.096;2023-04-22T02:37:54;21.70;43.20
15983;DHT22;14442;50.196;8.096;2023-04-22T02:40:21;21.80;43.30
15983;DHT22;14442;50.196;8.096;2023-04-22T02:42:48;21.80;43.30
15983;DHT22;14442;50.196;8.096;2023-04-22T02:45:15;21.70;43.20
15983;DHT22;14442;50.196;8.096;2023-04-22T02:47:42;21.70;43.20
15983;DHT22;14442;50.196;8.096;2023-04-22T02:50:10;21.80;43.30
15983;DHT22;14442;50.196;8.096;2023-04-22T02:52:37;21.70;43.20
15983;DHT22;14442;50.196;8.096;2023-04-22T02:55:04;21.70;43.20
15983;DHT22;14442;50.196;8.096;2023-04-22T02:57:31;21.70;43.20
15983;DHT22;14442;50.196;8.096;2023-04-22T02:59:57;21.70;43.30
15983;DHT22;14442;50.196;8.096;2023-04-22T03:02:24;21.70;43.30
15983;DHT22;14442;50.196;8.096;2023-04-22T03:04:51;21.60;43.20
15983;DHT22;14442;50.196;8.096;2023-04-22T03:07:20;21.70;43.30
15983;DHT22;14442;50.196;8.096;2023-04-22T03:09:46;21.70;43.30
15983;DHT22;14442;50.196;8.096;2023-04-22T03:12:13;21.70;43.30
15983;DHT22;14442;50.196;8.096;2023-04-22T03:14:40;21.70;43.30
15983;DHT22;14442;50.196;8.096;2023-04-22T03:17:06;21.70;43.30
15983;DHT22;14442;50.196;8.096;2023-04-22T03:19:33;21.60;43.30
15983;DHT22;14442;50.196;8.096;2023-04-22T03:21:59;21.70;43.40
15983;DHT22;14442;50.196;8.096;2023-04-22T03:24:27;21.70;43.40
15983;DHT22;14442;50.196;8.096;2023-04-22T03:26:54;21.70;43.40
15983;DHT22;14442;50.196;8.096;2023-04-22T03:29:21;21.60;43.30
15983;DHT22;14442;50.196;8.096;2023-04-22T03:31:47;21.60;43.30
15983;DHT22;14442;50.196;8.096;2023-04-22T03:34:14;21.60;43.90
15983;DHT22;14442;50.196;8.096;2023-04-22T03:36:41;21.60;43.30
15983;DHT22;14442;50.196;8.096;2023-04-22T03:39:08;21.60;43.30
15983;DHT22;14442;50.196;8.096;2023-04-22T03:41:36;21.60;44.00
15983;DHT22;14442;50.196;8.096;2023-04-22T03:44:03;21.60;43.40
15983;DHT22;14442;50.196;8.096;2023-04-22T03:46:29;21.60;43.40
15983;DHT22;14442;50.196;8.096;2023-04-22T03:48:56;21.60;43.40
15983;DHT22;14442;50.196;8.096;2023-04-22T03:51:23;21.60;43.40
15983;DHT22;14442;50.196;8.096;2023-04-22T03:53:49;21.60;43.40
15983;DHT22;14442;50.196;8.096;2023-04-22T03:56:16;21.60;44.00
15983;DHT22;14442;50.196;8.096;2023-04-22T03:58:44;21.60;43.40
15983;DHT22;14442;50.196;8.096;2023-04-22T04:01:11;21.60;43.40
15983;DHT22;14442;50.196;8.096;2023-04-22T04:03:38;21.50;43.40
15983;DHT22;14442;50.196;8.096;2023-04-22T04:06:05;21.50;43.30
15983;DHT22;14442;50.196;8.096;2023-04-22T04:08:31;21.50;43.30
15983;DHT22;14442;50.196;8.096;2023-04-22T04:10:58;21.50;43.30
15983;DHT22;14442;50.196;8.096;2023-04-22T04:13:25;21.50;43.30
15983;DHT22;14442;50.196;8.096;2023-04-22T04:15:57;21.50;43.30
15983;DHT22;14442;50.196;8.096;2023-04-22T04:18:24;21.50;43.30
15983;DHT22;14442;50.196;8.096;2023-04-22T04:20:51;21.50;43.30
15983;DHT22;14442;50.196;8.096;2023-04-22T04:23:18;21.50;43.30
15983;DHT22;14442;50.196;8.096;2023-04-22T04:25:44;21.50;43.30
15983;DHT22;14442;50.196;8.096;2023-04-22T04:28:13;21.40;43.20
15983;DHT22;14442;50.196;8.096;2023-04-22T04:30:39;21.40;43.20
15983;DHT22;14442;50.196;8.096;2023-04-22T04:33:08;21.40;43.20
15983;DHT22;14442;50.196;8.096;2023-04-22T04:35:36;21.50;43.30
15983;DHT22;14442;50.196;8.096;2023-04-22T04:38:03;21.40;43.20
15983;DHT22;14442;50.196;8.096;2023-04-22T04:40:30;21.40;43.30
15983;DHT22;14442;50.196;8.096;2023-04-22T04:42:56;21.40;43.30
15983;DHT22;14442;50.196;8.096;2023-04-22T04:45:23;21.40;43.20
15983;DHT22;14442;50.196;8.096;2023-04-22T04:47:50;21.40;43.20
15983;DHT22;14442;50.196;8.096;2023-04-22T04:50:20;21.40;43.30
15983;DHT22;14442;50.196;8.096;2023-04-22T04:52:48;21.40;43.30
15983;DHT22;14442;50.196;8.096;2023-04-22T04:55:15;21.40;43.30
15983;DHT22;14442;50.196;8.096;2023-04-22T04:57:42;21.40;43.30
15983;DHT22;14442;50.196;8.096;2023-04-22T05:00:10;21.40;43.30
15983;DHT22;14442;50.196;8.096;2023-04-22T05:02:38;21.40;43.20
15983;DHT22;14442;50.196;8.096;2023-04-22T05:05:05;21.40;43.30
15983;DHT22;14442;50.196;8.096;2023-04-22T05:07:34;21.40;43.20
15983;DHT22;14442;50.196;8.096;2023-04-22T05:10:02;21.40;43.30
15983;DHT22;14442;50.196;8.096;2023-04-22T05:12:29;21.40;43.30
15983;DHT22;14442;50.196;8.096;2023-04-22T05:14:56;21.40;43.30
15983;DHT22;14442;50.196;8.096;2023-04-22T05:17:22;21.40;43.30
15983;DHT22;14442;50.196;8.096;2023-04-22T05:19:49;21.30;43.10
15983;DHT22;14442;50.196;8.096;2023-04-22T05:22:16;21.30;43.10
15983;DHT22;14442;50.196;8.096;2023-04-22T05:24:44;21.40;43.30
15983;DHT22;14442;50.196;8.096;2023-04-22T05:27:11;21.40;43.30
15983;DHT22;14442;50.196;8.096;2023-04-22T05:29:38;21.30;43.10
15983;DHT22;14442;50.196;8.096;2023-04-22T05:32:06;21.40;43.30
15983;DHT22;14442;50.196;8.096;2023-04-22T05:34:33;21.40;43.20
15983;DHT22;14442;50.196;8.096;2023-04-22T05:37:01;21.40;43.30
15983;DHT22;14442;50.196;8.096;2023-04-22T05:39:27;21.40;43.30
15983;DHT22;14442;50.196;8.096;2023-04-22T05:41:55;21.30;43.10
15983;DHT22;14442;50.196;8.096;2023-04-22T05:44:22;21.40;43.30
15983;DHT22;14442;50.196;8.096;2023-04-22T05:46:48;21.40;43.20
15983;DHT22;14442;50.196;8.096;2023-04-22T05:49:15;21.30;43.20
15983;DHT22;14442;50.196;8.096;2023-04-22T05:51:42;21.40;43.20
15983;DHT22;14442;50.196;8.096;2023-04-22T05:54:08;21.30;43.20
15983;DHT22;14442;50.196;8.096;2023-04-22T05:56:35;21.30;43.10
15983;DHT22;14442;50.196;8.096;2023-04-22T05:59:03;21.30;43.10
15983;DHT22;14442;50.196;8.096;2023-04-22T06:01:30;21.30;43.10
15983;DHT22;14442;50.196;8.096;2023-04-22T06:03:56;21.40;43.20
15983;DHT22;14442;50.196;8.096;2023-04-22T06:06:23;21.20;43.10
15983;DHT22;14442;50.196;8.096;2023-04-22T06:08:50;21.30;43.20
15983;DHT22;14442;50.196;8.096;2023-04-22T06:11:17;21.30;43.20
15983;DHT22;14442;50.196;8.096;2023-04-22T06:13:43;21.30;43.30
15983;DHT22;14442;50.196;8.096;2023-04-22T06:16:11;21.30;43.20
15983;DHT22;14442;50.196;8.096;2023-04-22T06:18:38;21.30;43.20
15983;DHT22;14442;50.196;8.096;2023-04-22T06:21:05;21.30;43.20
15983;DHT22;14442;50.196;8.096;2023-04-22T06:23:31;21.30;43.20
15983;DHT22;14442;50.196;8.096;2023-04-22T06:25:58;21.30;43.20
15983;DHT22;14442;50.196;8.096;2023-04-22T06:28:26;21.30;43.20
15983;DHT22;14442;50.196;8.096;2023-04-22T06:30:52;21.30;43.30
15983;DHT22;14442;50.196;8.096;2023-04-22T06:33:20;21.30;43.20
15983;DHT22;14442;50.196;8.096;2023-04-22T06:35:47;21.30;43.20
15983;DHT22;14442;50.196;8.096;2023-04-22T06:38:14;21.30;43.20
15983;DHT22;14442;50.196;8.096;2023-04-22T06:40:41;21.30;43.20
15983;DHT22;14442;50.196;8.096;2023-04-22T06:43:07;21.30;43.20
15983;DHT22;14442;50.196;8.096;2023-04-22T06:45:34;21.30;43.10
15983;DHT22;14442;50.196;8.096;2023-04-22T06:48:01;21.30;43.20
15983;DHT22;14442;50.196;8.096;2023-04-22T06:50:29;21.30;43.10
15983;DHT22;14442;50.196;8.096;2023-04-22T06:52:56;21.30;43.20
15983;DHT22;14442;50.196;8.096;2023-04-22T06:55:22;21.30;43.20
15983;DHT22;14442;50.196;8.096;2023-04-22T06:57:49;21.30;43.20
15983;DHT22;14442;50.196;8.096;2023-04-22T07:00:16;21.30;43.20
15983;DHT22;14442;50.196;8.096;2023-04-22T07:02:43;21.30;43.20
15983;DHT22;14442;50.196;8.096;2023-04-22T07:05:10;21.30;43.20
15983;DHT22;14442;50.196;8.096;2023-04-22T07:07:38;21.30;43.20
15983;DHT22;14442;50.196;8.096;2023-04-22T07:10:05;21.30;43.20
15983;DHT22;14442;50.196;8.096;2023-04-22T07:12:32;21.30;43.20
15983;DHT22;14442;50.196;8.096;2023-04-22T07:14:59;21.30;43.20
15983;DHT22;14442;50.196;8.096;2023-04-22T07:17:25;21.30;43.30
15983;DHT22;14442;50.196;8.096;2023-04-22T07:19:52;21.30;43.20
15983;DHT22;14442;50.196;8.096;2023-04-22T07:22:19;21.30;43.20
15983;DHT22;14442;50.196;8.096;2023-04-22T07:24:47;21.30;43.20
15983;DHT22;14442;50.196;8.096;2023-04-22T07:27:13;21.30;43.10
15983;DHT22;14442;50.196;8.096;2023-04-22T07:29:40;21.30;43.10
15983;DHT22;14442;50.196;8.096;2023-04-22T07:32:07;21.30;43.10
15983;DHT22;14442;50.196;8.096;2023-04-22T07:34:34;21.30;43.20
15983;DHT22;14442;50.196;8.096;2023-04-22T07:37:00;21.30;43.80
15983;DHT22;14442;50.196;8.096;2023-04-22T07:39:27;21.30;43.20
15983;DHT22;14442;50.196;8.096;2023-04-22T07:41:55;21.30;43.20
15983;DHT22;14442;50.196;8.096;2023-04-22T07:44:22;21.30;43.20
15983;DHT22;14442;50.196;8.096;2023-04-22T07:46:49;21.40;43.30
15983;DHT22;14442;50.196;8.096;2023-04-22T07:49:16;21.30;43.10
15983;DHT22;14442;50.196;8.096;2023-04-22T07:51:44;21.40;43.30
15983;DHT22;14442;50.196;8.096;2023-04-22T07:54:11;21.40;43.20
15983;DHT22;14442;50.196;8.096;2023-04-22T07:56:37;21.40;43.20
15983;DHT22;14442;50.196;8.096;2023-04-22T07:59:05;21.30;43.10
15983;DHT22;14442;50.196;8.096;2023-04-22T08:01:32;21.40;43.30
15983;DHT22;14442;50.196;8.096;2023-04-22T08:03:59;21.40;43.20
15983;DHT22;14442;50.196;8.096;2023-04-22T08:06:26;21.40;43.20
15983;DHT22;14442;50.196;8.096;2023-04-22T08:08:53;21.40;43.20
15983;DHT22;14442;50.196;8.096;2023-04-22T08:11:20;21.40;43.30
15983;DHT22;14442;50.196;8.096;2023-04-22T08:13:46;21.40;43.30
15983;DHT22;14442;50.196;8.096;2023-04-22T08:16:14;21.40;43.30
15983;DHT22;14442;50.196;8.096;2023-04-22T08:18:41;21.40;43.20
15983;DHT22;14442;50.196;8.096;2023-04-22T08:21:08;21.40;43.10
15983;DHT22;14442;50.196;8.096;2023-04-22T08:23:35;21.40;43.10
15983;DHT22;14442;50.196;8.096;2023-04-22T08:26:02;21.40;43.10
15983;DHT22;14442;50.196;8.096;2023-04-22T08:28:29;21.40;43.10
15983;DHT22;14442;50.196;8.096;2023-04-22T08:30:56;21.40;43.10
15983;DHT22;14442;50.196;8.096;2023-04-22T08:33:24;21.40;43.10
15983;DHT22;14442;50.196;8.096;2023-04-22T08:35:50;21.40;43.10
15983;DHT22;14442;50.196;8.096;2023-04-22T08:38:17;21.40;44.10
15983;DHT22;14442;50.196;8.096;2023-04-22T08:40:45;21.40;43.80
15983;DHT22;14442;50.196;8.096;2023-04-22T08:43:12;21.50;43.60
15983;DHT22;14442;50.196;8.096;2023-04-22T08:45:38;21.50;43.50
15983;DHT22;14442;50.196;8.096;2023-04-22T08:48:06;21.50;43.60
15983;DHT22;14442;50.196;8.096;2023-04-22T08:50:36;21.60;43.90
15983;DHT22;14442;50.196;8.096;2023-04-22T08:53:03;21.50;43.90
15983;DHT22;14442;50.196;8.096;2023-04-22T08:55:30;21.50;44.00
15983;DHT22;14442;50.196;8.096;2023-04-22T08:57:59;21.60;44.10
15983;DHT22;14442;50.196;8.096;2023-04-22T09:00:28;21.60;44.30
15983;DHT22;14442;50.196;8.096;2023-04-22T09:02:56;21.60;44.40
15983;DHT22;14442;50.196;8.096;2023-04-22T09:05:26;21.60;44.40
15983;DHT22;14442;50.196;8.096;2023-04-22T09:07:54;21.60;44.70
15983;DHT22;14442;50.196;8.096;2023-04-22T09:10:22;21.60;44.50
15983;DHT22;14442;50.196;8.096;2023-04-22T09:12:49;21.60;44.70
15983;DHT22;14442;50.196;8.096;2023-04-22T09:15:17;21.70;45.20
15983;DHT22;14442;50.196;8.096;2023-04-22T09:17:43;21.70;45.00
15983;DHT22;14442;50.196;8.096;2023-04-22T09:20:10;21.70;45.00
15983;DHT22;14442;50.196;8.096;2023-04-22T09:22:40;21.70;45.00
15983;DHT22;14442;50.196;8.096;2023-04-22T09:25:15;21.70;45.00
15983;DHT22;14442;50.196;8.096;2023-04-22T09:27:42;21.70;45.00
15983;DHT22;14442;50.196;8.096;2023-04-22T09:30:09;21.70;44.90
15983;DHT22;14442;50.196;8.096;2023-04-22T09:32:36;21.70;44.80
15983;DHT22;14442;50.196;8.096;2023-04-22T09:35:03;21.70;45.50
15983;DHT22;14442;50.196;8.096;2023-04-22T09:37:30;21.70;44.80
15983;DHT22;14442;50.196;8.096;2023-04-22T09:39:58;21.70;44.80
15983;DHT22;14442;50.196;8.096;2023-04-22T09:42:26;21.70;45.00
15983;DHT22;14442;50.196;8.096;2023-04-22T09:44:52;21.70;44.90
15983;DHT22;14442;50.196;8.096;2023-04-22T09:47:20;21.70;44.90
15983;DHT22;14442;50.196;8.096;2023-04-22T09:49:48;21.70;44.90
15983;DHT22;14442;50.196;8.096;2023-04-22T09:52:21;21.70;44.70
15983;DHT22;14442;50.196;8.096;2023-04-22T09:54:51;21.70;44.80
15983;DHT22;14442;50.196;8.096;2023-04-22T09:57:18;21.70;44.90
15983;DHT22;14442;50.196;8.096;2023-04-22T09:59:46;21.70;44.60
15983;DHT22;14442;50.196;8.096;2023-04-22T10:02:15;21.70;44.70
15983;DHT22;14442;50.196;8.096;2023-04-22T10:04:42;21.70;44.80
15983;DHT22;14442;50.196;8.096;2023-04-22T10:07:08;21.70;44.60
15983;DHT22;14442;50.196;8.096;2023-04-22T10:09:35;21.70;44.60
15983;DHT22;14442;50.196;8.096;2023-04-22T10:12:02;21.70;44.60
15983;DHT22;14442;50.196;8.096;2023-04-22T10:14:30;21.70;44.50
15983;DHT22;14442;50.196;8.096;2023-04-22T10:16:59;21.70;44.50
15983;DHT22;14442;50.196;8.096;2023-04-22T10:19:27;21.70;45.10
15983;DHT22;14442;50.196;8.096;2023-04-22T10:21:56;21.60;44.30
15983;DHT22;14442;50.196;8.096;2023-04-22T10:24:25;21.70;44.40
15983;DHT22;14442;50.196;8.096;2023-04-22T10:26:54;21.70;44.40
15983;DHT22;14442;50.196;8.096;2023-04-22T10:29:23;21.70;44.30
15983;DHT22;14442;50.196;8.096;2023-04-22T10:31:53;21.70;44.30
15983;DHT22;14442;50.196;8.096;2023-04-22T10:34:22;21.70;44.20
15983;DHT22;14442;50.196;8.096;2023-04-22T10:37:00;21.70;44.30
15983;DHT22;14442;50.196;8.096;2023-04-22T10:39:28;21.70;44.30
15983;DHT22;14442;50.196;8.096;2023-04-22T10:42:03;21.70;44.20
15983;DHT22;14442;50.196;8.096;2023-04-22T10:44:48;21.70;44.20
15983;DHT22;14442;50.196;8.096;2023-04-22T10:47:26;21.70;44.20
15983;DHT22;14442;50.196;8.096;2023-04-22T10:50:19;21.70;44.20
15983;DHT22;14442;50.196;8.096;2023-04-22T10:52:49;21.70;44.10
15983;DHT22;14442;50.196;8.096;2023-04-22T10:55:16;21.70;44.00
15983;DHT22;14442;50.196;8.096;2023-04-22T10:57:44;21.70;44.00
15983;DHT22;14442;50.196;8.096;2023-04-22T11:00:29;21.70;44.10
15983;DHT22;14442;50.196;8.096;2023-04-22T11:03:16;21.70;44.10
15983;DHT22;14442;50.196;8.096;2023-04-22T11:05:44;21.80;44.10
15983;DHT22;14442;50.196;8.096;2023-04-22T11:08:19;21.70;44.10
15983;DHT22;14442;50.196;8.096;2023-04-22T11:10:49;21.70;44.90
15983;DHT22;14442;50.196;8.096;2023-04-22T11:13:17;21.80;44.30
15983;DHT22;14442;50.196;8.096;2023-04-22T11:15:46;21.80;44.30
15983;DHT22;14442;50.196;8.096;2023-04-22T11:18:17;21.70;44.20
15983;DHT22;14442;50.196;8.096;2023-04-22T11:20:46;21.80;44.20
15983;DHT22;14442;50.196;8.096;2023-04-22T11:23:17;21.80;44.20
15983;DHT22;14442;50.196;8.096;2023-04-22T11:25:44;21.80;44.20
15983;DHT22;14442;50.196;8.096;2023-04-22T11:28:11;21.80;44.20
15983;DHT22;14442;50.196;8.096;2023-04-22T11:30:38;21.80;44.20
15983;DHT22;14442;50.196;8.096;2023-04-22T11:33:04;21.80;44.20
15983;DHT22;14442;50.196;8.096;2023-04-22T11:35:33;21.80;44.30
15983;DHT22;14442;50.196;8.096;2023-04-22T11:38:02;21.80;44.30
15983;DHT22;14442;50.196;8.096;2023-04-22T11:40:30;21.80;44.30
15983;DHT22;14442;50.196;8.096;2023-04-22T11:43:00;21.80;44.30
15983;DHT22;14442;50.196;8.096;2023-04-22T11:45:28;21.80;44.20
15983;DHT22;14442;50.196;8.096;2023-04-22T11:47:54;21.80;44.40
15983;DHT22;14442;50.196;8.096;2023-04-22T11:50:23;21.80;44.40
15983;DHT22;14442;50.196;8.096;2023-04-22T11:52:53;21.80;44.40
15983;DHT22;14442;50.196;8.096;2023-04-22T11:55:23;21.80;44.40
15983;DHT22;14442;50.196;8.096;2023-04-22T11:57:53;21.90;44.60
15983;DHT22;14442;50.196;8.096;2023-04-22T12:00:21;21.80;44.60
15983;DHT22;14442;50.196;8.096;2023-04-22T12:02:56;21.80;44.60
15983;DHT22;14442;50.196;8.096;2023-04-22T12:05:36;21.80;44.60
15983;DHT22;14442;50.196;8.096;2023-04-22T12:08:06;21.90;44.60
15983;DHT22;14442;50.196;8.096;2023-04-22T12:10:38;21.90;44.50
15983;DHT22;14442;50.196;8.096;2023-04-22T12:13:06;21.90;44.60
15983;DHT22;14442;50.196;8.096;2023-04-22T12:15:41;21.90;44.50
15983;DHT22;14442;50.196;8.096;2023-04-22T12:18:08;21.90;44.60
15983;DHT22;14442;50.196;8.096;2023-04-22T12:20:37;21.90;45.20
15983;DHT22;14442;50.196;8.096;2023-04-22T12:23:04;21.90;44.50
15983;DHT22;14442;50.196;8.096;2023-04-22T12:25:31;21.90;44.50
15983;DHT22;14442;50.196;8.096;2023-04-22T12:28:00;21.90;44.50
15983;DHT22;14442;50.196;8.096;2023-04-22T12:30:27;21.90;44.40
15983;DHT22;14442;50.196;8.096;2023-04-22T12:32:53;21.90;44.40
15983;DHT22;14442;50.196;8.096;2023-04-22T12:35:20;21.90;44.40
15983;DHT22;14442;50.196;8.096;2023-04-22T12:37:47;21.90;44.40
15983;DHT22;14442;50.196;8.096;2023-04-22T12:40:14;21.80;44.20
15983;DHT22;14442;50.196;8.096;2023-04-22T12:42:41;21.80;44.40
15983;DHT22;14442;50.196;8.096;2023-04-22T12:45:09;21.80;44.30
15983;DHT22;14442;50.196;8.096;2023-04-22T12:47:36;21.80;44.20
15983;DHT22;14442;50.196;8.096;2023-04-22T12:50:04;21.80;44.40
15983;DHT22;14442;50.196;8.096;2023-04-22T12:52:33;21.80;44.90
15983;DHT22;14442;50.196;8.096;2023-04-22T12:54:59;21.80;44.30
15983;DHT22;14442;50.196;8.096;2023-04-22T12:57:26;21.80;44.40
15983;DHT22;14442;50.196;8.096;2023-04-22T12:59:53;21.80;44.30
15983;DHT22;14442;50.196;8.096;2023-04-22T13:02:21;21.80;44.40
15983;DHT22;14442;50.196;8.096;2023-04-22T13:04:48;21.70;44.30
15983;DHT22;14442;50.196;8.096;2023-04-22T13:07:14;21.70;44.20
15983;DHT22;14442;50.196;8.096;2023-04-22T13:09:42;21.70;44.20
15983;DHT22;14442;50.196;8.096;2023-04-22T13:12:09;21.70;44.20
15983;DHT22;14442;50.196;8.096;2023-04-22T13:14:35;21.70;44.20
15983;DHT22;14442;50.196;8.096;2023-04-22T13:17:02;21.70;44.20
15983;DHT22;14442;50.196;8.096;2023-04-22T13:19:30;21.70;44.20
15983;DHT22;14442;50.196;8.096;2023-04-22T13:21:57;21.70;44.30
15983;DHT22;14442;50.196;8.096;2023-04-22T13:24:23;21.70;44.40
15983;DHT22;14442;50.196;8.096;2023-04-22T13:26:50;21.70;44.30
15983;DHT22;14442;50.196;8.096;2023-04-22T13:29:17;21.70;44.40
15983;DHT22;14442;50.196;8.096;2023-04-22T13:31:44;21.60;44.30
15983;DHT22;14442;50.196;8.096;2023-04-22T13:34:10;21.60;44.20
15983;DHT22;14442;50.196;8.096;2023-04-22T13:36:38;21.60;44.30
15983;DHT22;14442;50.196;8.096;2023-04-22T13:39:05;21.60;44.30
15983;DHT22;14442;50.196;8.096;2023-04-22T13:41:33;21.60;44.30
15983;DHT22;14442;50.196;8.096;2023-04-22T13:44:00;21.60;44.20
15983;DHT22;14442;50.196;8.096;2023-04-22T13:46:28;21.60;44.20
15983;DHT22;14442;50.196;8.096;2023-04-22T13:48:55;21.60;44.20
15983;DHT22;14442;50.196;8.096;2023-04-22T13:51:23;21.60;44.10
15983;DHT22;14442;50.196;8.096;2023-04-22T13:53:51;21.60;44.10
15983;DHT22;14442;50.196;8.096;2023-04-22T13:56:17;21.60;44.10
15983;DHT22;14442;50.196;8.096;2023-04-22T13:58:44;21.60;44.20
15983;DHT22;14442;50.196;8.096;2023-04-22T14:01:11;21.60;44.10
15983;DHT22;14442;50.196;8.096;2023-04-22T14:03:38;21.60;44.20
15983;DHT22;14442;50.196;8.096;2023-04-22T14:06:05;21.60;44.10
15983;DHT22;14442;50.196;8.096;2023-04-22T14:08:32;21.50;44.10
15983;DHT22;14442;50.196;8.096;2023-04-22T14:11:00;21.50;44.00
15983;DHT22;14442;50.196;8.096;2023-04-22T14:13:28;21.50;44.10
15983;DHT22;14442;50.196;8.096;2023-04-22T14:15:55;21.60;44.10
15983;DHT22;14442;50.196;8.096;2023-04-22T14:18:22;21.50;44.00
15983;DHT22;14442;50.196;8.096;2023-04-22T14:20:49;21.50;44.10
15983;DHT22;14442;50.196;8.096;2023-04-22T14:23:15;21.50;44.10
15983;DHT22;14442;50.196;8.096;2023-04-22T14:25:43;21.50;44.10
15983;DHT22;14442;50.196;8.096;2023-04-22T14:28:11;21.50;44.10
15983;DHT22;14442;50.196;8.096;2023-04-22T14:30:38;21.50;44.10
15983;DHT22;14442;50.196;8.096;2023-04-22T14:33:06;21.50;44.10
15983;DHT22;14442;50.196;8.096;2023-04-22T14:35:34;21.40;44.00
15983;DHT22;14442;50.196;8.096;2023-04-22T14:38:02;21.50;44.10
15983;DHT22;14442;50.196;8.096;2023-04-22T14:40:28;21.50;44.10
15983;DHT22;14442;50.196;8.096;2023-04-22T14:42:56;21.50;44.10
15983;DHT22;14442;50.196;8.096;2023-04-22T14:45:25;21.50;44.20
15983;DHT22;14442;50.196;8.096;2023-04-22T14:47:52;21.50;44.10
15983;DHT22;14442;50.196;8.096;2023-04-22T14:50:19;21.50;44.10
15983;DHT22;14442;50.196;8.096;2023-04-22T14:52:46;21.50;44.20
15983;DHT22;14442;50.196;8.096;2023-04-22T14:55:12;21.50;44.10
15983;DHT22;14442;50.196;8.096;2023-04-22T14:57:39;21.50;44.10
15983;DHT22;14442;50.196;8.096;2023-04-22T15:00:07;21.40;44.10
15983;DHT22;14442;50.196;8.096;2023-04-22T15:02:35;21.40;44.10
15983;DHT22;14442;50.196;8.096;2023-04-22T15:05:02;21.40;44.00
15983;DHT22;14442;50.196;8.096;2023-04-22T15:07:29;21.40;44.10
15983;DHT22;14442;50.196;8.096;2023-04-22T15:09:56;21.40;44.10
15983;DHT22;14442;50.196;8.096;2023-04-22T15:12:23;21.40;44.10
15983;DHT22;14442;50.196;8.096;2023-04-22T15:14:50;21.40;44.10
15983;DHT22;14442;50.196;8.096;2023-04-22T15:17:17;21.40;44.10
15983;DHT22;14442;50.196;8.096;2023-04-22T15:19:45;21.40;44.70
15983;DHT22;14442;50.196;8.096;2023-04-22T15:22:12;21.40;44.10
15983;DHT22;14442;50.196;8.096;2023-04-22T15:24:39;21.40;44.10
15983;DHT22;14442;50.196;8.096;2023-04-22T15:27:06;21.40;44.10
15983;DHT22;14442;50.196;8.096;2023-04-22T15:29:33;21.40;44.00
15983;DHT22;14442;50.196;8.096;2023-04-22T15:31:59;21.40;44.00